sensor_id;sensor_type;location;lat;lon;timestamp;P1;durP1;ratioP1;P2;durP2;ratioP2
10232;SDS011;5161;48.174;11.756;2023-08-17T00:01:34;12.40;;;11.30;;
10232;SDS011;5161;48.174;11.756;2023-08-17T00:03:59;11.37;;;10.40;;
10232;SDS011;5161;48.174;11.756;2023-08-17T00:06:25;13.10;;;11.70;;
10232;SDS011;5161;48.174;11.756;2023-08-17T00:08:51;13.73;;;11.97;;
10232;SDS011;5161;48.174;11.756;2023-08-17T00:11:19;12.80;;;11.50;;
10232;SDS011;5161;48.174;11.756;2023-08-17T00:13:44;12.70;;;11.50;;
10232;SDS011;5161;48.174;11.756;2023-08-17T00:16:10;14.03;;;11.83;;
10232;SDS011;5161;48.174;11.756;2023-08-17T00:18:36;13.33;;;11.47;;
10232;SDS011;5161;48.174;11.756;2023-08-17T00:21:01;15.93;;;11.37;;
10232;SDS011;5161;48.174;11.756;2023-08-17T00:23:28;13.37;;;11.67;;
10232;SDS011;5161;48.174;11.756;2023-08-17T00:25:54;13.33;;;12.03;;
10232;SDS011;5161;48.174;11.756;2023-08-17T00:28:20;13.37;;;11.93;;
10232;SDS011;5161;48.174;11.756;2023-08-17T00:30:45;13.63;;;12.37;;
10232;SDS011;5161;48.174;11.756;2023-08-17T00:33:11;13.37;;;12.17;;
10232;SDS011;5161;48.174;11.756;2023-08-17T00:35:36;13.40;;;12.10;;
10232;SDS011;5161;48.174;11.756;2023-08-17T00:38:02;13.43;;;12.13;;
10232;SDS011;5161;48.174;11.756;2023-08-17T00:40:28;13.23;;;12.10;;
10232;SDS011;5161;48.174;11.756;2023-08-17T00:42:54;15.23;;;11.83;;
10232;SDS011;5161;48.174;11.756;2023-08-17T00:45:19;12.80;;;11.67;;
10232;SDS011;5161;48.174;11.756;2023-08-17T00:47:46;12.60;;;11.50;;
10232;SDS011;5161;48.174;11.756;2023-08-17T00:50:12;12.90;;;11.80;;
10232;SDS011;5161;48.174;11.756;2023-08-17T00:52:40;13.53;;;12.37;;
10232;SDS011;5161;48.174;11.756;2023-08-17T00:55:07;14.20;;;12.47;;
10232;SDS011;5161;48.174;11.756;2023-08-17T00:57:34;13.60;;;12.33;;
10232;SDS011;5161;48.174;11.756;2023-08-17T01:00:00;13.03;;;11.83;;
10232;SDS011;5161;48.174;11.756;2023-08-17T01:02:27;13.27;;;12.17;;
10232;SDS011;5161;48.174;11.756;2023-08-17T01:04:53;13.77;;;12.57;;
10232;SDS011;5161;48.174;11.756;2023-08-17T01:07:19;13.80;;;12.50;;
10232;SDS011;5161;48.174;11.756;2023-08-17T01:09:44;13.90;;;12.60;;
10232;SDS011;5161;48.174;11.756;2023-08-17T01:12:17;13.13;;;12.00;;
10232;SDS011;5161;48.174;11.756;2023-08-17T01:17:29;13.90;;;12.50;;
10232;SDS011;5161;48.174;11.756;2023-08-17T01:20:05;13.07;;;11.93;;
10232;SDS011;5161;48.174;11.756;2023-08-17T01:22:34;14.50;;;13.10;;
10232;SDS011;5161;48.174;11.756;2023-08-17T01:25:01;14.40;;;13.13;;
10232;SDS011;5161;48.174;11.756;2023-08-17T01:27:37;14.57;;;13.07;;
10232;SDS011;5161;48.174;11.756;2023-08-17T01:30:06;14.17;;;12.80;;
10232;SDS011;5161;48.174;11.756;2023-08-17T01:32:39;13.77;;;12.47;;
10232;SDS011;5161;48.174;11.756;2023-08-17T01:38:12;13.60;;;12.30;;
10232;SDS011;5161;48.174;11.756;2023-08-17T01:40:42;13.67;;;12.37;;
10232;SDS011;5161;48.174;11.756;2023-08-17T01:43:08;13.47;;;11.83;;
10232;SDS011;5161;48.174;11.756;2023-08-17T01:45:36;14.13;;;12.83;;
10232;SDS011;5161;48.174;11.756;2023-08-17T01:48:02;13.50;;;12.10;;
10232;SDS011;5161;48.174;11.756;2023-08-17T01:50:27;12.97;;;11.93;;
10232;SDS011;5161;48.174;11.756;2023-08-17T01:52:53;12.87;;;11.77;;
10232;SDS011;5161;48.174;11.756;2023-08-17T01:55:20;12.03;;;10.97;;
10232;SDS011;5161;48.174;11.756;2023-08-17T01:57:48;13.97;;;11.33;;
10232;SDS011;5161;48.174;11.756;2023-08-17T02:00:14;12.60;;;11.50;;
10232;SDS011;5161;48.174;11.756;2023-08-17T02:02:40;12.53;;;11.53;;
10232;SDS011;5161;48.174;11.756;2023-08-17T02:05:06;12.10;;;10.90;;
10232;SDS011;5161;48.174;11.756;2023-08-17T02:07:32;13.20;;;12.00;;
10232;SDS011;5161;48.174;11.756;2023-08-17T02:09:57;15.47;;;11.83;;
10232;SDS011;5161;48.174;11.756;2023-08-17T02:12:24;12.77;;;11.57;;
10232;SDS011;5161;48.174;11.756;2023-08-17T02:14:49;12.50;;;11.30;;
10232;SDS011;5161;48.174;11.756;2023-08-17T02:17:15;12.60;;;11.50;;
10232;SDS011;5161;48.174;11.756;2023-08-17T02:19:42;12.23;;;11.13;;
10232;SDS011;5161;48.174;11.756;2023-08-17T02:22:08;12.33;;;11.13;;
10232;SDS011;5161;48.174;11.756;2023-08-17T02:24:34;11.73;;;10.73;;
10232;SDS011;5161;48.174;11.756;2023-08-17T02:26:59;11.97;;;10.97;;
10232;SDS011;5161;48.174;11.756;2023-08-17T02:29:25;13.23;;;12.10;;
10232;SDS011;5161;48.174;11.756;2023-08-17T02:31:50;11.83;;;10.67;;
10232;SDS011;5161;48.174;11.756;2023-08-17T02:34:16;12.00;;;10.90;;
10232;SDS011;5161;48.174;11.756;2023-08-17T02:36:41;12.77;;;11.67;;
10232;SDS011;5161;48.174;11.756;2023-08-17T02:39:07;11.77;;;10.77;;
10232;SDS011;5161;48.174;11.756;2023-08-17T02:41:33;12.03;;;10.90;;
10232;SDS011;5161;48.174;11.756;2023-08-17T02:44:00;12.03;;;10.87;;
10232;SDS011;5161;48.174;11.756;2023-08-17T02:46:26;12.70;;;11.60;;
10232;SDS011;5161;48.174;11.756;2023-08-17T02:48:51;12.70;;;11.40;;
10232;SDS011;5161;48.174;11.756;2023-08-17T02:51:18;13.17;;;11.87;;
10232;SDS011;5161;48.174;11.756;2023-08-17T02:53:43;13.20;;;12.10;;
10232;SDS011;5161;48.174;11.756;2023-08-17T02:56:09;12.97;;;11.87;;
10232;SDS011;5161;48.174;11.756;2023-08-17T02:58:40;13.37;;;12.10;;
10232;SDS011;5161;48.174;11.756;2023-08-17T03:01:09;13.47;;;12.10;;
10232;SDS011;5161;48.174;11.756;2023-08-17T03:03:35;13.67;;;12.47;;
10232;SDS011;5161;48.174;11.756;2023-08-17T03:06:01;13.03;;;11.70;;
10232;SDS011;5161;48.174;11.756;2023-08-17T03:08:28;12.90;;;11.83;;
10232;SDS011;5161;48.174;11.756;2023-08-17T03:10:53;13.50;;;12.20;;
10232;SDS011;5161;48.174;11.756;2023-08-17T03:13:19;14.70;;;12.07;;
10232;SDS011;5161;48.174;11.756;2023-08-17T03:15:45;14.47;;;12.77;;
10232;SDS011;5161;48.174;11.756;2023-08-17T03:18:11;13.37;;;12.17;;
10232;SDS011;5161;48.174;11.756;2023-08-17T03:20:36;14.63;;;12.13;;
10232;SDS011;5161;48.174;11.756;2023-08-17T03:23:02;13.23;;;12.03;;
10232;SDS011;5161;48.174;11.756;2023-08-17T03:25:31;14.27;;;12.87;;
10232;SDS011;5161;48.174;11.756;2023-08-17T03:27:57;14.63;;;13.20;;
10232;SDS011;5161;48.174;11.756;2023-08-17T03:30:22;14.63;;;13.20;;
10232;SDS011;5161;48.174;11.756;2023-08-17T03:32:48;15.03;;;12.90;;
10232;SDS011;5161;48.174;11.756;2023-08-17T03:35:13;14.13;;;12.77;;
10232;SDS011;5161;48.174;11.756;2023-08-17T03:37:39;13.97;;;12.57;;
10232;SDS011;5161;48.174;11.756;2023-08-17T03:40:04;14.13;;;12.87;;
10232;SDS011;5161;48.174;11.756;2023-08-17T03:42:31;14.30;;;12.90;;
10232;SDS011;5161;48.174;11.756;2023-08-17T03:44:56;13.40;;;12.30;;
10232;SDS011;5161;48.174;11.756;2023-08-17T03:47:22;14.27;;;12.93;;
10232;SDS011;5161;48.174;11.756;2023-08-17T03:49:47;13.80;;;12.63;;
10232;SDS011;5161;48.174;11.756;2023-08-17T03:52:13;13.23;;;12.13;;
10232;SDS011;5161;48.174;11.756;2023-08-17T03:54:39;14.50;;;13.00;;
10232;SDS011;5161;48.174;11.756;2023-08-17T03:57:04;14.23;;;12.73;;
10232;SDS011;5161;48.174;11.756;2023-08-17T03:59:30;13.03;;;11.93;;
10232;SDS011;5161;48.174;11.756;2023-08-17T04:01:55;13.73;;;12.43;;
10232;SDS011;5161;48.174;11.756;2023-08-17T04:04:21;13.40;;;12.20;;
10232;SDS011;5161;48.174;11.756;2023-08-17T04:06:47;13.87;;;12.43;;
10232;SDS011;5161;48.174;11.756;2023-08-17T04:09:12;13.30;;;12.20;;
10232;SDS011;5161;48.174;11.756;2023-08-17T04:11:38;13.87;;;12.57;;
10232;SDS011;5161;48.174;11.756;2023-08-17T04:14:03;14.10;;;12.80;;
10232;SDS011;5161;48.174;11.756;2023-08-17T04:16:29;15.50;;;12.70;;
10232;SDS011;5161;48.174;11.756;2023-08-17T04:18:55;14.53;;;12.87;;
10232;SDS011;5161;48.174;11.756;2023-08-17T04:21:21;14.03;;;12.63;;
10232;SDS011;5161;48.174;11.756;2023-08-17T04:23:46;13.30;;;12.17;;
10232;SDS011;5161;48.174;11.756;2023-08-17T04:26:12;13.40;;;12.20;;
10232;SDS011;5161;48.174;11.756;2023-08-17T04:28:38;13.97;;;12.57;;
10232;SDS011;5161;48.174;11.756;2023-08-17T04:31:03;14.20;;;12.80;;
10232;SDS011;5161;48.174;11.756;2023-08-17T04:33:29;13.83;;;12.63;;
10232;SDS011;5161;48.174;11.756;2023-08-17T04:35:55;14.03;;;12.53;;
10232;SDS011;5161;48.174;11.756;2023-08-17T04:38:20;14.33;;;12.80;;
10232;SDS011;5161;48.174;11.756;2023-08-17T04:40:46;13.43;;;12.30;;
10232;SDS011;5161;48.174;11.756;2023-08-17T04:43:12;14.03;;;12.63;;
10232;SDS011;5161;48.174;11.756;2023-08-17T04:45:38;14.80;;;13.30;;
10232;SDS011;5161;48.174;11.756;2023-08-17T04:48:04;14.87;;;13.37;;
10232;SDS011;5161;48.174;11.756;2023-08-17T04:50:30;13.03;;;11.93;;
10232;SDS011;5161;48.174;11.756;2023-08-17T04:52:56;13.73;;;12.53;;
10232;SDS011;5161;48.174;11.756;2023-08-17T04:55:22;13.73;;;12.50;;
10232;SDS011;5161;48.174;11.756;2023-08-17T04:57:48;13.60;;;12.37;;
10232;SDS011;5161;48.174;11.756;2023-08-17T05:00:14;13.03;;;11.93;;
10232;SDS011;5161;48.174;11.756;2023-08-17T05:02:41;13.30;;;12.00;;
10232;SDS011;5161;48.174;11.756;2023-08-17T05:05:07;14.17;;;12.70;;
10232;SDS011;5161;48.174;11.756;2023-08-17T05:07:35;13.50;;;12.10;;
10232;SDS011;5161;48.174;11.756;2023-08-17T05:10:00;13.77;;;12.57;;
10232;SDS011;5161;48.174;11.756;2023-08-17T05:12:26;14.33;;;12.23;;
10232;SDS011;5161;48.174;11.756;2023-08-17T05:14:52;13.03;;;11.93;;
10232;SDS011;5161;48.174;11.756;2023-08-17T05:17:17;14.23;;;12.73;;
10232;SDS011;5161;48.174;11.756;2023-08-17T05:19:43;13.80;;;12.50;;
10232;SDS011;5161;48.174;11.756;2023-08-17T05:22:10;13.90;;;12.20;;
10232;SDS011;5161;48.174;11.756;2023-08-17T05:24:37;13.77;;;12.30;;
10232;SDS011;5161;48.174;11.756;2023-08-17T05:27:04;14.00;;;12.60;;
10232;SDS011;5161;48.174;11.756;2023-08-17T05:29:30;13.80;;;12.50;;
10232;SDS011;5161;48.174;11.756;2023-08-17T05:31:57;15.57;;;12.40;;
10232;SDS011;5161;48.174;11.756;2023-08-17T05:34:23;14.23;;;12.73;;
10232;SDS011;5161;48.174;11.756;2023-08-17T05:36:49;16.07;;;12.47;;
10232;SDS011;5161;48.174;11.756;2023-08-17T05:39:14;14.13;;;12.60;;
10232;SDS011;5161;48.174;11.756;2023-08-17T05:41:40;14.87;;;12.80;;
10232;SDS011;5161;48.174;11.756;2023-08-17T05:44:06;13.40;;;12.00;;
10232;SDS011;5161;48.174;11.756;2023-08-17T05:46:32;12.83;;;11.53;;
10232;SDS011;5161;48.174;11.756;2023-08-17T05:48:58;12.93;;;11.60;;
10232;SDS011;5161;48.174;11.756;2023-08-17T05:51:24;13.43;;;12.17;;
10232;SDS011;5161;48.174;11.756;2023-08-17T05:53:49;13.97;;;11.87;;
10232;SDS011;5161;48.174;11.756;2023-08-17T05:56:15;19.17;;;12.07;;
10232;SDS011;5161;48.174;11.756;2023-08-17T05:58:41;14.93;;;11.60;;
10232;SDS011;5161;48.174;11.756;2023-08-17T06:01:07;18.27;;;11.43;;
10232;SDS011;5161;48.174;11.756;2023-08-17T06:03:34;16.40;;;11.40;;
10232;SDS011;5161;48.174;11.756;2023-08-17T06:06:00;17.10;;;11.90;;
10232;SDS011;5161;48.174;11.756;2023-08-17T06:08:26;14.18;;;12.02;;
10232;SDS011;5161;48.174;11.756;2023-08-17T06:10:51;13.33;;;10.77;;
10232;SDS011;5161;48.174;11.756;2023-08-17T06:13:17;14.53;;;11.03;;
10232;SDS011;5161;48.174;11.756;2023-08-17T06:15:42;14.10;;;10.93;;
10232;SDS011;5161;48.174;11.756;2023-08-17T06:18:08;14.50;;;11.23;;
10232;SDS011;5161;48.174;11.756;2023-08-17T06:20:34;13.17;;;11.17;;
10232;SDS011;5161;48.174;11.756;2023-08-17T06:22:59;15.17;;;10.93;;
10232;SDS011;5161;48.174;11.756;2023-08-17T06:25:25;13.13;;;11.10;;
10232;SDS011;5161;48.174;11.756;2023-08-17T06:27:51;13.73;;;11.40;;
10232;SDS011;5161;48.174;11.756;2023-08-17T06:30:16;12.73;;;10.93;;
10232;SDS011;5161;48.174;11.756;2023-08-17T06:32:42;12.03;;;10.90;;
10232;SDS011;5161;48.174;11.756;2023-08-17T06:35:08;12.00;;;10.83;;
10232;SDS011;5161;48.174;11.756;2023-08-17T06:37:34;12.83;;;11.00;;
10232;SDS011;5161;48.174;11.756;2023-08-17T06:40:00;12.67;;;11.13;;
10232;SDS011;5161;48.174;11.756;2023-08-17T06:42:27;12.30;;;11.00;;
10232;SDS011;5161;48.174;11.756;2023-08-17T06:44:53;11.83;;;10.83;;
10232;SDS011;5161;48.174;11.756;2023-08-17T06:47:18;12.60;;;11.30;;
10232;SDS011;5161;48.174;11.756;2023-08-17T06:49:44;12.07;;;11.07;;
10232;SDS011;5161;48.174;11.756;2023-08-17T06:52:09;12.27;;;11.17;;
10232;SDS011;5161;48.174;11.756;2023-08-17T06:54:35;12.47;;;10.87;;
10232;SDS011;5161;48.174;11.756;2023-08-17T06:57:01;11.30;;;10.20;;
10232;SDS011;5161;48.174;11.756;2023-08-17T06:59:26;11.60;;;10.50;;
10232;SDS011;5161;48.174;11.756;2023-08-17T07:01:52;11.30;;;10.17;;
10232;SDS011;5161;48.174;11.756;2023-08-17T07:04:17;11.07;;;10.07;;
10232;SDS011;5161;48.174;11.756;2023-08-17T07:06:43;11.37;;;10.27;;
10232;SDS011;5161;48.174;11.756;2023-08-17T07:09:11;11.40;;;10.40;;
10232;SDS011;5161;48.174;11.756;2023-08-17T07:11:37;11.17;;;10.10;;
10232;SDS011;5161;48.174;11.756;2023-08-17T07:14:12;11.23;;;10.20;;
10232;SDS011;5161;48.174;11.756;2023-08-17T07:16:37;11.33;;;10.30;;
10232;SDS011;5161;48.174;11.756;2023-08-17T07:19:03;10.77;;;9.77;;
10232;SDS011;5161;48.174;11.756;2023-08-17T07:21:29;10.90;;;9.87;;
10232;SDS011;5161;48.174;11.756;2023-08-17T07:23:55;10.80;;;9.70;;
10232;SDS011;5161;48.174;11.756;2023-08-17T07:26:20;9.73;;;8.83;;
10232;SDS011;5161;48.174;11.756;2023-08-17T07:28:47;10.30;;;9.40;;
10232;SDS011;5161;48.174;11.756;2023-08-17T07:31:13;9.97;;;9.07;;
10232;SDS011;5161;48.174;11.756;2023-08-17T07:33:39;10.27;;;9.37;;
10232;SDS011;5161;48.174;11.756;2023-08-17T07:36:04;10.33;;;9.43;;
10232;SDS011;5161;48.174;11.756;2023-08-17T07:38:30;10.40;;;9.37;;
10232;SDS011;5161;48.174;11.756;2023-08-17T07:40:56;10.50;;;9.50;;
10232;SDS011;5161;48.174;11.756;2023-08-17T07:43:22;10.33;;;9.33;;
10232;SDS011;5161;48.174;11.756;2023-08-17T07:45:54;9.53;;;8.73;;
10232;SDS011;5161;48.174;11.756;2023-08-17T07:48:20;9.70;;;8.80;;
10232;SDS011;5161;48.174;11.756;2023-08-17T07:50:52;11.20;;;8.50;;
10232;SDS011;5161;48.174;11.756;2023-08-17T07:53:18;9.50;;;8.70;;
10232;SDS011;5161;48.174;11.756;2023-08-17T07:55:44;9.70;;;8.87;;
10232;SDS011;5161;48.174;11.756;2023-08-17T07:58:10;9.30;;;8.50;;
10232;SDS011;5161;48.174;11.756;2023-08-17T08:00:36;10.20;;;9.40;;
10232;SDS011;5161;48.174;11.756;2023-08-17T08:03:01;9.53;;;8.67;;
10232;SDS011;5161;48.174;11.756;2023-08-17T08:05:27;9.87;;;9.10;;
10232;SDS011;5161;48.174;11.756;2023-08-17T08:07:53;9.30;;;8.50;;
10232;SDS011;5161;48.174;11.756;2023-08-17T08:10:18;10.20;;;8.57;;
10232;SDS011;5161;48.174;11.756;2023-08-17T08:12:44;9.57;;;8.87;;
10232;SDS011;5161;48.174;11.756;2023-08-17T08:15:10;10.87;;;8.90;;
10232;SDS011;5161;48.174;11.756;2023-08-17T08:17:35;10.07;;;8.80;;
10232;SDS011;5161;48.174;11.756;2023-08-17T08:20:02;13.20;;;9.37;;
10232;SDS011;5161;48.174;11.756;2023-08-17T08:22:28;10.33;;;8.67;;
10232;SDS011;5161;48.174;11.756;2023-08-17T08:24:53;9.50;;;8.70;;
10232;SDS011;5161;48.174;11.756;2023-08-17T08:27:19;10.83;;;9.67;;
10232;SDS011;5161;48.174;11.756;2023-08-17T08:29:44;11.20;;;10.30;;
10232;SDS011;5161;48.174;11.756;2023-08-17T08:32:10;11.53;;;10.43;;
10232;SDS011;5161;48.174;11.756;2023-08-17T08:34:36;12.23;;;11.00;;
10232;SDS011;5161;48.174;11.756;2023-08-17T08:37:01;11.23;;;10.23;;
10232;SDS011;5161;48.174;11.756;2023-08-17T08:39:27;12.37;;;11.37;;
10232;SDS011;5161;48.174;11.756;2023-08-17T08:41:53;11.90;;;11.00;;
10232;SDS011;5161;48.174;11.756;2023-08-17T08:44:19;11.10;;;10.00;;
10232;SDS011;5161;48.174;11.756;2023-08-17T08:46:45;11.93;;;10.80;;
10232;SDS011;5161;48.174;11.756;2023-08-17T08:49:11;32.83;;;11.95;;
10232;SDS011;5161;48.174;11.756;2023-08-17T08:51:41;15.10;;;11.40;;
10232;SDS011;5161;48.174;11.756;2023-08-17T08:54:11;15.70;;;12.05;;
10232;SDS011;5161;48.174;11.756;2023-08-17T08:56:39;13.02;;;11.63;;
10232;SDS011;5161;48.174;11.756;2023-08-17T08:59:08;12.07;;;10.98;;
10232;SDS011;5161;48.174;11.756;2023-08-17T09:01:35;12.73;;;11.48;;
10232;SDS011;5161;48.174;11.756;2023-08-17T09:04:01;12.53;;;11.43;;
10232;SDS011;5161;48.174;11.756;2023-08-17T09:06:29;12.55;;;11.25;;
10232;SDS011;5161;48.174;11.756;2023-08-17T09:08:59;13.10;;;11.82;;
10232;SDS011;5161;48.174;11.756;2023-08-17T09:11:26;14.02;;;10.98;;
10232;SDS011;5161;48.174;11.756;2023-08-17T09:13:52;12.07;;;10.93;;
10232;SDS011;5161;48.174;11.756;2023-08-17T09:16:18;18.65;;;11.52;;
10232;SDS011;5161;48.174;11.756;2023-08-17T09:18:43;30.60;;;12.15;;
10232;SDS011;5161;48.174;11.756;2023-08-17T09:21:19;12.40;;;11.23;;
10232;SDS011;5161;48.174;11.756;2023-08-17T09:23:49;12.57;;;11.23;;
10232;SDS011;5161;48.174;11.756;2023-08-17T09:26:19;13.52;;;10.70;;
10232;SDS011;5161;48.174;11.756;2023-08-17T09:28:46;12.02;;;11.00;;
10232;SDS011;5161;48.174;11.756;2023-08-17T09:31:12;12.52;;;11.23;;
10232;SDS011;5161;48.174;11.756;2023-08-17T09:33:38;14.90;;;11.52;;
10232;SDS011;5161;48.174;11.756;2023-08-17T09:36:03;12.98;;;11.70;;
10232;SDS011;5161;48.174;11.756;2023-08-17T09:38:29;11.48;;;10.48;;
10232;SDS011;5161;48.174;11.756;2023-08-17T09:40:55;11.15;;;10.30;;
10232;SDS011;5161;48.174;11.756;2023-08-17T09:43:22;17.13;;;10.98;;
10232;SDS011;5161;48.174;11.756;2023-08-17T09:45:49;22.02;;;12.27;;
10232;SDS011;5161;48.174;11.756;2023-08-17T09:48:15;21.67;;;10.80;;
10232;SDS011;5161;48.174;11.756;2023-08-17T09:50:45;12.30;;;10.68;;
10232;SDS011;5161;48.174;11.756;2023-08-17T09:53:12;11.98;;;10.93;;
10232;SDS011;5161;48.174;11.756;2023-08-17T09:55:39;12.40;;;11.40;;
10232;SDS011;5161;48.174;11.756;2023-08-17T09:58:07;12.52;;;11.32;;
10232;SDS011;5161;48.174;11.756;2023-08-17T10:00:33;17.13;;;11.25;;
10232;SDS011;5161;48.174;11.756;2023-08-17T10:03:03;33.80;;;12.45;;
10232;SDS011;5161;48.174;11.756;2023-08-17T10:05:35;26.27;;;12.48;;
10232;SDS011;5161;48.174;11.756;2023-08-17T10:08:04;26.00;;;12.18;;
10232;SDS011;5161;48.174;11.756;2023-08-17T10:10:33;11.57;;;10.57;;
10232;SDS011;5161;48.174;11.756;2023-08-17T10:13:10;12.25;;;11.23;;
10232;SDS011;5161;48.174;11.756;2023-08-17T10:16:02;11.77;;;10.68;;
10232;SDS011;5161;48.174;11.756;2023-08-17T10:21:02;12.10;;;11.10;;
10232;SDS011;5161;48.174;11.756;2023-08-17T10:23:37;37.15;;;13.10;;
10232;SDS011;5161;48.174;11.756;2023-08-17T10:26:04;11.25;;;10.27;;
10232;SDS011;5161;48.174;11.756;2023-08-17T10:28:33;11.63;;;9.98;;
10232;SDS011;5161;48.174;11.756;2023-08-17T10:30:59;10.60;;;9.75;;
10232;SDS011;5161;48.174;11.756;2023-08-17T10:33:25;11.35;;;10.20;;
10232;SDS011;5161;48.174;11.756;2023-08-17T10:35:52;10.98;;;10.00;;
10232;SDS011;5161;48.174;11.756;2023-08-17T10:38:19;11.82;;;10.82;;
10232;SDS011;5161;48.174;11.756;2023-08-17T10:40:44;11.25;;;10.25;;
10232;SDS011;5161;48.174;11.756;2023-08-17T10:43:16;11.18;;;10.18;;
10232;SDS011;5161;48.174;11.756;2023-08-17T10:45:41;12.15;;;11.15;;
10232;SDS011;5161;48.174;11.756;2023-08-17T10:50:35;12.02;;;10.93;;
10232;SDS011;5161;48.174;11.756;2023-08-17T10:53:11;11.80;;;10.82;;
10232;SDS011;5161;48.174;11.756;2023-08-17T10:55:39;12.18;;;11.00;;
10232;SDS011;5161;48.174;11.756;2023-08-17T10:58:06;11.63;;;10.48;;
10232;SDS011;5161;48.174;11.756;2023-08-17T11:00:37;11.82;;;10.82;;
10232;SDS011;5161;48.174;11.756;2023-08-17T11:03:04;12.05;;;11.05;;
10232;SDS011;5161;48.174;11.756;2023-08-17T11:05:41;12.18;;;10.88;;
10232;SDS011;5161;48.174;11.756;2023-08-17T11:08:32;11.38;;;10.55;;
10232;SDS011;5161;48.174;11.756;2023-08-17T11:13:38;11.77;;;10.88;;
10232;SDS011;5161;48.174;11.756;2023-08-17T11:16:06;12.00;;;11.00;;
10232;SDS011;5161;48.174;11.756;2023-08-17T11:18:32;12.48;;;11.38;;
10232;SDS011;5161;48.174;11.756;2023-08-17T11:20:59;12.65;;;11.65;;
10232;SDS011;5161;48.174;11.756;2023-08-17T11:23:28;11.77;;;10.75;;
10232;SDS011;5161;48.174;11.756;2023-08-17T11:25:58;12.10;;;10.95;;
10232;SDS011;5161;48.174;11.756;2023-08-17T11:28:25;12.25;;;10.98;;
10232;SDS011;5161;48.174;11.756;2023-08-17T11:30:57;11.75;;;10.70;;
10232;SDS011;5161;48.174;11.756;2023-08-17T11:33:27;11.82;;;10.57;;
10232;SDS011;5161;48.174;11.756;2023-08-17T11:35:55;11.60;;;10.68;;
10232;SDS011;5161;48.174;11.756;2023-08-17T11:38:21;11.88;;;10.95;;
10232;SDS011;5161;48.174;11.756;2023-08-17T11:40:47;11.57;;;10.75;;
10232;SDS011;5161;48.174;11.756;2023-08-17T11:43:13;12.52;;;11.30;;
10232;SDS011;5161;48.174;11.756;2023-08-17T11:45:39;16.15;;;10.68;;
10232;SDS011;5161;48.174;11.756;2023-08-17T11:48:06;14.40;;;11.07;;
10232;SDS011;5161;48.174;11.756;2023-08-17T11:50:32;17.60;;;11.25;;
10232;SDS011;5161;48.174;11.756;2023-08-17T11:53:01;14.02;;;11.20;;
10232;SDS011;5161;48.174;11.756;2023-08-17T11:55:27;13.93;;;10.98;;
10232;SDS011;5161;48.174;11.756;2023-08-17T11:57:53;15.65;;;11.20;;
10232;SDS011;5161;48.174;11.756;2023-08-17T12:00:20;11.43;;;10.38;;
10232;SDS011;5161;48.174;11.756;2023-08-17T12:02:50;11.80;;;10.80;;
10232;SDS011;5161;48.174;11.756;2023-08-17T12:05:23;12.13;;;11.13;;
10232;SDS011;5161;48.174;11.756;2023-08-17T12:07:50;11.93;;;10.73;;
10232;SDS011;5161;48.174;11.756;2023-08-17T12:10:17;11.60;;;10.70;;
10232;SDS011;5161;48.174;11.756;2023-08-17T12:12:44;20.33;;;11.25;;
10232;SDS011;5161;48.174;11.756;2023-08-17T12:15:12;12.10;;;10.75;;
10232;SDS011;5161;48.174;11.756;2023-08-17T12:17:47;14.88;;;10.60;;
10232;SDS011;5161;48.174;11.756;2023-08-17T12:20:18;11.18;;;10.18;;
10232;SDS011;5161;48.174;11.756;2023-08-17T12:22:45;11.02;;;10.10;;
10232;SDS011;5161;48.174;11.756;2023-08-17T12:25:11;15.30;;;11.70;;
10232;SDS011;5161;48.174;11.756;2023-08-17T12:27:37;12.57;;;11.30;;
10232;SDS011;5161;48.174;11.756;2023-08-17T12:30:04;12.10;;;11.10;;
10232;SDS011;5161;48.174;11.756;2023-08-17T12:32:37;12.10;;;11.00;;
10232;SDS011;5161;48.174;11.756;2023-08-17T12:35:02;14.07;;;12.45;;
10232;SDS011;5161;48.174;11.756;2023-08-17T12:37:28;12.20;;;11.20;;
10232;SDS011;5161;48.174;11.756;2023-08-17T12:39:54;11.52;;;10.52;;
10232;SDS011;5161;48.174;11.756;2023-08-17T12:42:20;11.02;;;10.23;;
10232;SDS011;5161;48.174;11.756;2023-08-17T12:44:45;10.77;;;9.88;;
10232;SDS011;5161;48.174;11.756;2023-08-17T12:47:11;12.80;;;10.52;;
10232;SDS011;5161;48.174;11.756;2023-08-17T12:49:36;19.63;;;10.20;;
10232;SDS011;5161;48.174;11.756;2023-08-17T12:52:02;9.93;;;9.05;;
10232;SDS011;5161;48.174;11.756;2023-08-17T12:54:28;10.80;;;9.90;;
10232;SDS011;5161;48.174;11.756;2023-08-17T12:56:53;10.30;;;9.23;;
10232;SDS011;5161;48.174;11.756;2023-08-17T12:59:19;11.15;;;10.25;;
10232;SDS011;5161;48.174;11.756;2023-08-17T13:01:44;11.30;;;10.32;;
10232;SDS011;5161;48.174;11.756;2023-08-17T13:04:10;11.90;;;11.00;;
10232;SDS011;5161;48.174;11.756;2023-08-17T13:06:35;11.70;;;10.80;;
10232;SDS011;5161;48.174;11.756;2023-08-17T13:09:01;11.73;;;10.82;;
10232;SDS011;5161;48.174;11.756;2023-08-17T13:11:27;12.57;;;11.55;;
10232;SDS011;5161;48.174;11.756;2023-08-17T13:13:52;11.50;;;10.70;;
10232;SDS011;5161;48.174;11.756;2023-08-17T13:16:18;11.10;;;10.20;;
10232;SDS011;5161;48.174;11.756;2023-08-17T13:18:43;11.43;;;10.38;;
10232;SDS011;5161;48.174;11.756;2023-08-17T13:21:09;11.43;;;10.52;;
10232;SDS011;5161;48.174;11.756;2023-08-17T13:23:35;11.15;;;10.23;;
10232;SDS011;5161;48.174;11.756;2023-08-17T13:26:00;10.55;;;9.60;;
10232;SDS011;5161;48.174;11.756;2023-08-17T13:28:26;11.30;;;10.40;;
10232;SDS011;5161;48.174;11.756;2023-08-17T13:30:51;10.73;;;9.77;;
10232;SDS011;5161;48.174;11.756;2023-08-17T13:33:17;10.73;;;9.75;;
10232;SDS011;5161;48.174;11.756;2023-08-17T13:35:43;10.40;;;9.60;;
10232;SDS011;5161;48.174;11.756;2023-08-17T13:38:08;10.32;;;9.50;;
10232;SDS011;5161;48.174;11.756;2023-08-17T13:40:34;10.43;;;9.65;;
10232;SDS011;5161;48.174;11.756;2023-08-17T13:43:01;9.43;;;8.70;;
10232;SDS011;5161;48.174;11.756;2023-08-17T13:45:28;9.93;;;8.85;;
10232;SDS011;5161;48.174;11.756;2023-08-17T13:47:53;9.20;;;8.25;;
10232;SDS011;5161;48.174;11.756;2023-08-17T13:50:19;9.60;;;8.90;;
10232;SDS011;5161;48.174;11.756;2023-08-17T13:52:44;9.93;;;9.02;;
10232;SDS011;5161;48.174;11.756;2023-08-17T13:55:10;9.55;;;8.95;;
10232;SDS011;5161;48.174;11.756;2023-08-17T13:57:36;9.18;;;8.48;;
10232;SDS011;5161;48.174;11.756;2023-08-17T14:00:02;9.50;;;8.60;;
10232;SDS011;5161;48.174;11.756;2023-08-17T14:02:29;10.02;;;9.32;;
10232;SDS011;5161;48.174;11.756;2023-08-17T14:04:54;10.07;;;9.23;;
10232;SDS011;5161;48.174;11.756;2023-08-17T14:07:20;10.77;;;9.98;;
10232;SDS011;5161;48.174;11.756;2023-08-17T14:09:45;9.73;;;9.02;;
10232;SDS011;5161;48.174;11.756;2023-08-17T14:12:11;9.45;;;8.75;;
10232;SDS011;5161;48.174;11.756;2023-08-17T14:14:37;9.57;;;8.68;;
10232;SDS011;5161;48.174;11.756;2023-08-17T14:17:02;10.57;;;9.60;;
10232;SDS011;5161;48.174;11.756;2023-08-17T14:19:28;9.65;;;8.95;;
10232;SDS011;5161;48.174;11.756;2023-08-17T14:21:53;9.65;;;8.95;;
10232;SDS011;5161;48.174;11.756;2023-08-17T14:24:19;9.38;;;8.63;;
10232;SDS011;5161;48.174;11.756;2023-08-17T14:26:45;9.82;;;8.52;;
10232;SDS011;5161;48.174;11.756;2023-08-17T14:29:10;9.60;;;8.80;;
10232;SDS011;5161;48.174;11.756;2023-08-17T14:31:36;9.77;;;8.85;;
10232;SDS011;5161;48.174;11.756;2023-08-17T14:34:01;9.35;;;8.60;;
10232;SDS011;5161;48.174;11.756;2023-08-17T14:36:27;10.20;;;9.25;;